sensor_id;sensor_type;location;lat;lon;timestamp;P1;durP1;ratioP1;P2;durP2;ratioP2
29358;SDS011;16347;53.232;6.556;2024-03-02T00:01:44;5.97;;;2.85;;
29358;SDS011;16347;53.232;6.556;2024-03-02T00:04:12;6.45;;;2.95;;
29358;SDS011;16347;53.232;6.556;2024-03-02T00:06:40;7.25;;;2.85;;
29358;SDS011;16347;53.232;6.556;2024-03-02T00:09:08;5.70;;;2.90;;
29358;SDS011;16347;53.232;6.556;2024-03-02T00:11:39;5.90;;;3.05;;
29358;SDS011;16347;53.232;6.556;2024-03-02T00:14:08;10.45;;;3.08;;
29358;SDS011;16347;53.232;6.556;2024-03-02T00:16:36;5.50;;;3.00;;
29358;SDS011;16347;53.232;6.556;2024-03-02T00:19:04;4.70;;;3.25;;
29358;SDS011;16347;53.232;6.556;2024-03-02T00:21:34;6.28;;;3.38;;
29358;SDS011;16347;53.232;6.556;2024-03-02T00:24:04;6.93;;;3.03;;
29358;SDS011;16347;53.232;6.556;2024-03-02T00:26:45;5.78;;;3.17;;
29358;SDS011;16347;53.232;6.556;2024-03-02T00:29:14;4.75;;;2.90;;
29358;SDS011;16347;53.232;6.556;2024-03-02T00:31:45;5.72;;;2.95;;
29358;SDS011;16347;53.232;6.556;2024-03-02T00:34:15;5.57;;;3.33;;
29358;SDS011;16347;53.232;6.556;2024-03-02T00:36:43;6.20;;;3.25;;
29358;SDS011;16347;53.232;6.556;2024-03-02T00:39:12;5.03;;;2.78;;
29358;SDS011;16347;53.232;6.556;2024-03-02T00:41:42;7.10;;;2.78;;
29358;SDS011;16347;53.232;6.556;2024-03-02T00:44:11;6.55;;;3.03;;
29358;SDS011;16347;53.232;6.556;2024-03-02T00:46:42;5.38;;;2.97;;
29358;SDS011;16347;53.232;6.556;2024-03-02T00:49:11;6.13;;;3.10;;
29358;SDS011;16347;53.232;6.556;2024-03-02T00:51:46;5.53;;;2.67;;
29358;SDS011;16347;53.232;6.556;2024-03-02T00:54:15;5.47;;;2.97;;
29358;SDS011;16347;53.232;6.556;2024-03-02T00:56:47;9.17;;;3.70;;
29358;SDS011;16347;53.232;6.556;2024-03-02T00:59:16;8.75;;;2.83;;
29358;SDS011;16347;53.232;6.556;2024-03-02T01:01:45;8.25;;;3.15;;
29358;SDS011;16347;53.232;6.556;2024-03-02T01:04:13;6.75;;;3.60;;
29358;SDS011;16347;53.232;6.556;2024-03-02T01:06:41;9.15;;;3.10;;
29358;SDS011;16347;53.232;6.556;2024-03-02T01:09:09;6.07;;;3.30;;
29358;SDS011;16347;53.232;6.556;2024-03-02T01:11:39;7.38;;;3.28;;
29358;SDS011;16347;53.232;6.556;2024-03-02T01:14:07;8.60;;;2.97;;
29358;SDS011;16347;53.232;6.556;2024-03-02T01:16:34;4.97;;;3.03;;
29358;SDS011;16347;53.232;6.556;2024-03-02T01:19:04;6.97;;;3.60;;
29358;SDS011;16347;53.232;6.556;2024-03-02T01:21:32;5.65;;;3.30;;
29358;SDS011;16347;53.232;6.556;2024-03-02T01:24:00;10.40;;;3.35;;
29358;SDS011;16347;53.232;6.556;2024-03-02T01:26:28;6.18;;;3.45;;
29358;SDS011;16347;53.232;6.556;2024-03-02T01:28:57;6.15;;;3.10;;
29358;SDS011;16347;53.232;6.556;2024-03-02T01:31:24;6.60;;;3.45;;
29358;SDS011;16347;53.232;6.556;2024-03-02T01:33:53;5.53;;;3.35;;
29358;SDS011;16347;53.232;6.556;2024-03-02T01:36:22;5.28;;;3.45;;
29358;SDS011;16347;53.232;6.556;2024-03-02T01:38:50;6.72;;;3.53;;
29358;SDS011;16347;53.232;6.556;2024-03-02T01:41:18;8.65;;;3.88;;
29358;SDS011;16347;53.232;6.556;2024-03-02T01:43:45;7.97;;;3.83;;
29358;SDS011;16347;53.232;6.556;2024-03-02T01:46:13;6.00;;;3.55;;
29358;SDS011;16347;53.232;6.556;2024-03-02T01:48:41;5.90;;;3.30;;
29358;SDS011;16347;53.232;6.556;2024-03-02T01:51:09;8.48;;;3.75;;
29358;SDS011;16347;53.232;6.556;2024-03-02T01:53:39;8.98;;;3.97;;
29358;SDS011;16347;53.232;6.556;2024-03-02T01:56:06;6.72;;;4.00;;
29358;SDS011;16347;53.232;6.556;2024-03-02T01:58:34;6.95;;;4.20;;
29358;SDS011;16347;53.232;6.556;2024-03-02T02:01:02;6.07;;;3.75;;
29358;SDS011;16347;53.232;6.556;2024-03-02T02:03:30;6.10;;;3.67;;
29358;SDS011;16347;53.232;6.556;2024-03-02T02:05:58;10.05;;;3.53;;
29358;SDS011;16347;53.232;6.556;2024-03-02T02:08:26;5.90;;;3.75;;
29358;SDS011;16347;53.232;6.556;2024-03-02T02:10:55;7.85;;;3.53;;
29358;SDS011;16347;53.232;6.556;2024-03-02T02:13:24;6.15;;;3.70;;
29358;SDS011;16347;53.232;6.556;2024-03-02T02:20:47;8.55;;;4.30;;
29358;SDS011;16347;53.232;6.556;2024-03-02T02:23:17;6.80;;;4.18;;
29358;SDS011;16347;53.232;6.556;2024-03-02T02:25:44;9.48;;;4.13;;
29358;SDS011;16347;53.232;6.556;2024-03-02T02:28:12;7.72;;;3.97;;
29358;SDS011;16347;53.232;6.556;2024-03-02T02:30:40;6.32;;;3.97;;
29358;SDS011;16347;53.232;6.556;2024-03-02T02:33:09;8.45;;;3.60;;
29358;SDS011;16347;53.232;6.556;2024-03-02T02:35:37;6.40;;;3.17;;
29358;SDS011;16347;53.232;6.556;2024-03-02T02:52:53;5.45;;;3.50;;
29358;SDS011;16347;53.232;6.556;2024-03-02T03:00:18;6.60;;;3.50;;
29358;SDS011;16347;53.232;6.556;2024-03-02T03:02:47;4.72;;;2.85;;
29358;SDS011;16347;53.232;6.556;2024-03-02T03:05:17;5.60;;;3.28;;
29358;SDS011;16347;53.232;6.556;2024-03-02T03:07:45;5.60;;;2.80;;
29358;SDS011;16347;53.232;6.556;2024-03-02T03:10:16;7.93;;;2.83;;
29358;SDS011;16347;53.232;6.556;2024-03-02T03:12:45;5.93;;;2.97;;
29358;SDS011;16347;53.232;6.556;2024-03-02T03:15:14;6.00;;;2.75;;
29358;SDS011;16347;53.232;6.556;2024-03-02T03:17:43;4.00;;;2.45;;
29358;SDS011;16347;53.232;6.556;2024-03-02T03:20:13;4.78;;;2.67;;
29358;SDS011;16347;53.232;6.556;2024-03-02T03:22:42;5.95;;;2.80;;
29358;SDS011;16347;53.232;6.556;2024-03-02T03:25:10;5.40;;;2.72;;
29358;SDS011;16347;53.232;6.556;2024-03-02T03:27:39;4.85;;;2.60;;
29358;SDS011;16347;53.232;6.556;2024-03-02T03:30:08;3.20;;;2.20;;
29358;SDS011;16347;53.232;6.556;2024-03-02T03:32:38;4.63;;;2.47;;
29358;SDS011;16347;53.232;6.556;2024-03-02T03:35:06;4.10;;;2.38;;
29358;SDS011;16347;53.232;6.556;2024-03-02T03:37:35;3.40;;;2.20;;
29358;SDS011;16347;53.232;6.556;2024-03-02T03:40:03;4.72;;;2.40;;
29358;SDS011;16347;53.232;6.556;2024-03-02T03:42:36;7.22;;;2.20;;
29358;SDS011;16347;53.232;6.556;2024-03-02T03:45:04;7.45;;;2.72;;
29358;SDS011;16347;53.232;6.556;2024-03-02T03:47:33;4.90;;;2.20;;
29358;SDS011;16347;53.232;6.556;2024-03-02T03:50:02;6.57;;;2.50;;
29358;SDS011;16347;53.232;6.556;2024-03-02T03:52:33;5.43;;;2.17;;
29358;SDS011;16347;53.232;6.556;2024-03-02T03:55:01;3.80;;;2.53;;
29358;SDS011;16347;53.232;6.556;2024-03-02T03:57:29;4.45;;;2.20;;
29358;SDS011;16347;53.232;6.556;2024-03-02T03:59:56;3.85;;;2.22;;
29358;SDS011;16347;53.232;6.556;2024-03-02T04:02:25;8.30;;;2.55;;
29358;SDS011;16347;53.232;6.556;2024-03-02T04:04:52;3.92;;;2.08;;
29358;SDS011;16347;53.232;6.556;2024-03-02T04:07:22;4.50;;;2.28;;
29358;SDS011;16347;53.232;6.556;2024-03-02T04:09:49;5.32;;;2.58;;
29358;SDS011;16347;53.232;6.556;2024-03-02T04:12:17;3.17;;;2.10;;
29358;SDS011;16347;53.232;6.556;2024-03-02T04:14:45;6.93;;;2.70;;
29358;SDS011;16347;53.232;6.556;2024-03-02T04:17:13;7.70;;;2.58;;
29358;SDS011;16347;53.232;6.556;2024-03-02T04:19:40;10.00;;;2.03;;
29358;SDS011;16347;53.232;6.556;2024-03-02T04:22:08;7.43;;;3.15;;
29358;SDS011;16347;53.232;6.556;2024-03-02T04:24:48;7.80;;;2.60;;
29358;SDS011;16347;53.232;6.556;2024-03-02T04:27:15;3.47;;;2.45;;
29358;SDS011;16347;53.232;6.556;2024-03-02T04:29:43;3.40;;;2.20;;
29358;SDS011;16347;53.232;6.556;2024-03-02T04:32:11;4.15;;;2.22;;
29358;SDS011;16347;53.232;6.556;2024-03-02T04:34:39;5.55;;;2.78;;
29358;SDS011;16347;53.232;6.556;2024-03-02T04:37:07;5.97;;;2.40;;
29358;SDS011;16347;53.232;6.556;2024-03-02T04:39:35;3.63;;;2.25;;
29358;SDS011;16347;53.232;6.556;2024-03-02T04:42:05;6.25;;;2.20;;
29358;SDS011;16347;53.232;6.556;2024-03-02T04:44:33;3.40;;;2.20;;
29358;SDS011;16347;53.232;6.556;2024-03-02T04:47:01;4.75;;;2.75;;
29358;SDS011;16347;53.232;6.556;2024-03-02T04:49:29;6.65;;;2.90;;
29358;SDS011;16347;53.232;6.556;2024-03-02T04:51:57;4.85;;;2.72;;
29358;SDS011;16347;53.232;6.556;2024-03-02T04:54:25;5.60;;;2.38;;
29358;SDS011;16347;53.232;6.556;2024-03-02T04:56:53;3.10;;;2.13;;
29358;SDS011;16347;53.232;6.556;2024-03-02T04:59:22;4.00;;;2.22;;
29358;SDS011;16347;53.232;6.556;2024-03-02T05:01:49;3.50;;;2.20;;
29358;SDS011;16347;53.232;6.556;2024-03-02T05:04:17;5.43;;;2.65;;
29358;SDS011;16347;53.232;6.556;2024-03-02T05:06:45;5.05;;;2.22;;
29358;SDS011;16347;53.232;6.556;2024-03-02T05:09:19;4.13;;;2.28;;
29358;SDS011;16347;53.232;6.556;2024-03-02T05:11:47;4.38;;;2.40;;
29358;SDS011;16347;53.232;6.556;2024-03-02T05:14:37;5.15;;;2.65;;
29358;SDS011;16347;53.232;6.556;2024-03-02T05:17:06;4.18;;;2.50;;
29358;SDS011;16347;53.232;6.556;2024-03-02T05:19:34;3.92;;;2.47;;
29358;SDS011;16347;53.232;6.556;2024-03-02T05:22:02;6.22;;;2.42;;
29358;SDS011;16347;53.232;6.556;2024-03-02T05:24:30;4.57;;;2.30;;
29358;SDS011;16347;53.232;6.556;2024-03-02T05:26:58;5.95;;;2.40;;
29358;SDS011;16347;53.232;6.556;2024-03-02T05:29:26;3.67;;;2.13;;
29358;SDS011;16347;53.232;6.556;2024-03-02T05:31:55;4.78;;;2.30;;
29358;SDS011;16347;53.232;6.556;2024-03-02T05:34:23;3.25;;;2.20;;
29358;SDS011;16347;53.232;6.556;2024-03-02T05:36:51;6.57;;;2.58;;
29358;SDS011;16347;53.232;6.556;2024-03-02T05:39:19;3.55;;;2.15;;
29358;SDS011;16347;53.232;6.556;2024-03-02T05:41:47;7.90;;;2.55;;
29358;SDS011;16347;53.232;6.556;2024-03-02T05:44:15;4.38;;;1.92;;
29358;SDS011;16347;53.232;6.556;2024-03-02T05:46:44;6.50;;;2.65;;
29358;SDS011;16347;53.232;6.556;2024-03-02T05:49:14;4.90;;;2.30;;
29358;SDS011;16347;53.232;6.556;2024-03-02T05:51:41;5.95;;;2.55;;
29358;SDS011;16347;53.232;6.556;2024-03-02T05:54:09;4.22;;;2.60;;
29358;SDS011;16347;53.232;6.556;2024-03-02T05:56:37;4.85;;;2.42;;
29358;SDS011;16347;53.232;6.556;2024-03-02T05:59:05;3.80;;;2.63;;
29358;SDS011;16347;53.232;6.556;2024-03-02T06:01:39;9.63;;;2.60;;
29358;SDS011;16347;53.232;6.556;2024-03-02T06:04:07;5.10;;;2.65;;
29358;SDS011;16347;53.232;6.556;2024-03-02T06:06:36;6.65;;;3.38;;
29358;SDS011;16347;53.232;6.556;2024-03-02T06:09:05;7.00;;;2.58;;
29358;SDS011;16347;53.232;6.556;2024-03-02T06:11:34;7.57;;;2.83;;
29358;SDS011;16347;53.232;6.556;2024-03-02T06:14:03;9.25;;;2.72;;
29358;SDS011;16347;53.232;6.556;2024-03-02T06:16:31;4.00;;;2.50;;
29358;SDS011;16347;53.232;6.556;2024-03-02T06:18:59;5.30;;;2.63;;
29358;SDS011;16347;53.232;6.556;2024-03-02T06:21:28;5.82;;;2.90;;
29358;SDS011;16347;53.232;6.556;2024-03-02T06:23:57;8.57;;;2.35;;
29358;SDS011;16347;53.232;6.556;2024-03-02T06:26:25;6.38;;;2.97;;
29358;SDS011;16347;53.232;6.556;2024-03-02T06:28:55;4.07;;;2.30;;
29358;SDS011;16347;53.232;6.556;2024-03-02T06:31:23;5.05;;;2.67;;
29358;SDS011;16347;53.232;6.556;2024-03-02T06:33:51;7.97;;;2.70;;
29358;SDS011;16347;53.232;6.556;2024-03-02T06:36:19;7.82;;;2.88;;
29358;SDS011;16347;53.232;6.556;2024-03-02T06:38:47;4.47;;;2.35;;
29358;SDS011;16347;53.232;6.556;2024-03-02T06:41:16;4.95;;;2.30;;
29358;SDS011;16347;53.232;6.556;2024-03-02T06:43:44;3.13;;;2.20;;
29358;SDS011;16347;53.232;6.556;2024-03-02T06:46:14;9.07;;;2.53;;
29358;SDS011;16347;53.232;6.556;2024-03-02T06:48:41;4.25;;;2.50;;
29358;SDS011;16347;53.232;6.556;2024-03-02T06:51:09;5.05;;;2.20;;
29358;SDS011;16347;53.232;6.556;2024-03-02T06:53:38;5.88;;;2.03;;
29358;SDS011;16347;53.232;6.556;2024-03-02T06:56:06;4.50;;;2.33;;
29358;SDS011;16347;53.232;6.556;2024-03-02T06:58:37;4.10;;;2.00;;
29358;SDS011;16347;53.232;6.556;2024-03-02T07:01:05;2.80;;;1.98;;
29358;SDS011;16347;53.232;6.556;2024-03-02T07:03:33;9.60;;;2.65;;
29358;SDS011;16347;53.232;6.556;2024-03-02T07:06:01;5.43;;;2.17;;
29358;SDS011;16347;53.232;6.556;2024-03-02T07:08:29;2.78;;;1.58;;
29358;SDS011;16347;53.232;6.556;2024-03-02T07:10:57;3.85;;;2.20;;
29358;SDS011;16347;53.232;6.556;2024-03-02T07:13:25;4.45;;;1.92;;
29358;SDS011;16347;53.232;6.556;2024-03-02T07:15:54;5.53;;;2.38;;
29358;SDS011;16347;53.232;6.556;2024-03-02T07:18:53;3.38;;;1.73;;
29358;SDS011;16347;53.232;6.556;2024-03-02T07:21:23;3.55;;;1.77;;
29358;SDS011;16347;53.232;6.556;2024-03-02T07:23:51;2.90;;;1.92;;
29358;SDS011;16347;53.232;6.556;2024-03-02T07:26:19;4.43;;;1.88;;
29358;SDS011;16347;53.232;6.556;2024-03-02T07:28:50;5.35;;;1.83;;
29358;SDS011;16347;53.232;6.556;2024-03-02T07:31:19;1.90;;;1.40;;
29358;SDS011;16347;53.232;6.556;2024-03-02T07:33:47;3.38;;;1.83;;
29358;SDS011;16347;53.232;6.556;2024-03-02T07:36:15;3.58;;;1.60;;
29358;SDS011;16347;53.232;6.556;2024-03-02T07:38:43;6.38;;;1.60;;
29358;SDS011;16347;53.232;6.556;2024-03-02T07:41:12;3.70;;;1.90;;
29358;SDS011;16347;53.232;6.556;2024-03-02T07:43:40;4.47;;;1.98;;
29358;SDS011;16347;53.232;6.556;2024-03-02T07:46:08;4.20;;;1.95;;
29358;SDS011;16347;53.232;6.556;2024-03-02T07:48:37;5.47;;;2.60;;
29358;SDS011;16347;53.232;6.556;2024-03-02T07:51:05;4.10;;;1.90;;
29358;SDS011;16347;53.232;6.556;2024-03-02T07:53:33;4.13;;;2.45;;
29358;SDS011;16347;53.232;6.556;2024-03-02T07:56:03;3.53;;;2.45;;
29358;SDS011;16347;53.232;6.556;2024-03-02T07:58:32;6.47;;;2.40;;
29358;SDS011;16347;53.232;6.556;2024-03-02T08:01:01;5.10;;;2.78;;
29358;SDS011;16347;53.232;6.556;2024-03-02T08:03:30;4.63;;;2.88;;
29358;SDS011;16347;53.232;6.556;2024-03-02T08:06:00;4.05;;;2.45;;
29358;SDS011;16347;53.232;6.556;2024-03-02T08:08:28;6.78;;;2.50;;
29358;SDS011;16347;53.232;6.556;2024-03-02T08:10:56;5.25;;;2.72;;
29358;SDS011;16347;53.232;6.556;2024-03-02T08:13:27;4.15;;;2.30;;
29358;SDS011;16347;53.232;6.556;2024-03-02T08:15:55;3.65;;;2.03;;
29358;SDS011;16347;53.232;6.556;2024-03-02T08:18:23;4.22;;;2.25;;
29358;SDS011;16347;53.232;6.556;2024-03-02T08:20:52;5.57;;;2.15;;
29358;SDS011;16347;53.232;6.556;2024-03-02T08:23:21;3.38;;;2.00;;
29358;SDS011;16347;53.232;6.556;2024-03-02T08:25:49;4.38;;;2.28;;
29358;SDS011;16347;53.232;6.556;2024-03-02T08:28:18;5.85;;;2.00;;
29358;SDS011;16347;53.232;6.556;2024-03-02T08:30:46;4.53;;;2.20;;
29358;SDS011;16347;53.232;6.556;2024-03-02T08:33:14;6.28;;;2.40;;
29358;SDS011;16347;53.232;6.556;2024-03-02T08:35:42;2.83;;;1.90;;
29358;SDS011;16347;53.232;6.556;2024-03-02T08:38:11;2.20;;;1.75;;
29358;SDS011;16347;53.232;6.556;2024-03-02T08:40:41;7.53;;;2.15;;
29358;SDS011;16347;53.232;6.556;2024-03-02T08:43:09;7.47;;;2.00;;
29358;SDS011;16347;53.232;6.556;2024-03-02T08:45:37;3.65;;;1.80;;
29358;SDS011;16347;53.232;6.556;2024-03-02T08:48:06;5.93;;;1.88;;
29358;SDS011;16347;53.232;6.556;2024-03-02T08:50:36;4.30;;;1.63;;
29358;SDS011;16347;53.232;6.556;2024-03-02T08:53:05;4.93;;;1.73;;
29358;SDS011;16347;53.232;6.556;2024-03-02T08:55:33;3.70;;;1.85;;
29358;SDS011;16347;53.232;6.556;2024-03-02T08:58:02;1.95;;;1.10;;
29358;SDS011;16347;53.232;6.556;2024-03-02T09:00:31;3.50;;;1.20;;
29358;SDS011;16347;53.232;6.556;2024-03-02T09:02:59;2.63;;;1.45;;
29358;SDS011;16347;53.232;6.556;2024-03-02T09:05:27;3.05;;;1.73;;
29358;SDS011;16347;53.232;6.556;2024-03-02T09:07:55;6.55;;;1.38;;
29358;SDS011;16347;53.232;6.556;2024-03-02T09:10:23;4.15;;;1.50;;
29358;SDS011;16347;53.232;6.556;2024-03-02T09:12:54;2.13;;;1.25;;
29358;SDS011;16347;53.232;6.556;2024-03-02T09:15:23;2.28;;;1.27;;
29358;SDS011;16347;53.232;6.556;2024-03-02T09:17:51;4.57;;;1.73;;
29358;SDS011;16347;53.232;6.556;2024-03-02T09:20:20;3.50;;;1.33;;
29358;SDS011;16347;53.232;6.556;2024-03-02T09:22:48;3.55;;;1.55;;
29358;SDS011;16347;53.232;6.556;2024-03-02T09:25:16;3.10;;;1.25;;
29358;SDS011;16347;53.232;6.556;2024-03-02T09:27:44;3.63;;;1.08;;
29358;SDS011;16347;53.232;6.556;2024-03-02T09:30:12;4.10;;;1.20;;
29358;SDS011;16347;53.232;6.556;2024-03-02T09:32:42;2.72;;;1.02;;
29358;SDS011;16347;53.232;6.556;2024-03-02T09:35:12;5.28;;;1.10;;
29358;SDS011;16347;53.232;6.556;2024-03-02T09:37:40;2.50;;;1.05;;
29358;SDS011;16347;53.232;6.556;2024-03-02T09:40:09;3.05;;;1.75;;
29358;SDS011;16347;53.232;6.556;2024-03-02T09:42:37;3.78;;;1.40;;
29358;SDS011;16347;53.232;6.556;2024-03-02T09:45:06;5.18;;;1.77;;
29358;SDS011;16347;53.232;6.556;2024-03-02T09:47:34;6.28;;;1.63;;
29358;SDS011;16347;53.232;6.556;2024-03-02T09:50:05;4.78;;;0.90;;
29358;SDS011;16347;53.232;6.556;2024-03-02T09:52:34;4.07;;;1.20;;
29358;SDS011;16347;53.232;6.556;2024-03-02T09:55:04;3.75;;;1.00;;
29358;SDS011;16347;53.232;6.556;2024-03-02T09:57:33;1.63;;;0.98;;
29358;SDS011;16347;53.232;6.556;2024-03-02T10:00:02;4.70;;;1.40;;
29358;SDS011;16347;53.232;6.556;2024-03-02T10:02:31;3.30;;;0.82;;
29358;SDS011;16347;53.232;6.556;2024-03-02T10:04:59;4.10;;;0.82;;
29358;SDS011;16347;53.232;6.556;2024-03-02T10:07:32;1.17;;;0.80;;
29358;SDS011;16347;53.232;6.556;2024-03-02T10:10:00;5.93;;;1.33;;
29358;SDS011;16347;53.232;6.556;2024-03-02T10:12:41;2.75;;;0.82;;
29358;SDS011;16347;53.232;6.556;2024-03-02T10:15:09;1.67;;;0.95;;
29358;SDS011;16347;53.232;6.556;2024-03-02T10:17:38;6.15;;;1.30;;
29358;SDS011;16347;53.232;6.556;2024-03-02T10:20:21;4.85;;;1.20;;
29358;SDS011;16347;53.232;6.556;2024-03-02T10:22:52;3.28;;;1.20;;
29358;SDS011;16347;53.232;6.556;2024-03-02T10:25:29;7.97;;;1.75;;
29358;SDS011;16347;53.232;6.556;2024-03-02T10:28:02;3.08;;;0.95;;
29358;SDS011;16347;53.232;6.556;2024-03-02T10:30:32;3.08;;;0.90;;
29358;SDS011;16347;53.232;6.556;2024-03-02T10:33:01;3.38;;;1.00;;
29358;SDS011;16347;53.232;6.556;2024-03-02T10:35:30;3.25;;;1.02;;
29358;SDS011;16347;53.232;6.556;2024-03-02T10:38:00;4.20;;;0.95;;
29358;SDS011;16347;53.232;6.556;2024-03-02T10:40:29;7.57;;;1.40;;
29358;SDS011;16347;53.232;6.556;2024-03-02T10:42:59;4.75;;;1.17;;
29358;SDS011;16347;53.232;6.556;2024-03-02T10:45:31;2.05;;;1.00;;
29358;SDS011;16347;53.232;6.556;2024-03-02T10:48:00;2.92;;;1.20;;
29358;SDS011;16347;53.232;6.556;2024-03-02T10:50:32;6.22;;;1.30;;
29358;SDS011;16347;53.232;6.556;2024-03-02T10:53:01;1.58;;;1.00;;
29358;SDS011;16347;53.232;6.556;2024-03-02T10:55:32;5.80;;;1.25;;
29358;SDS011;16347;53.232;6.556;2024-03-02T10:58:00;1.77;;;1.27;;
29358;SDS011;16347;53.232;6.556;2024-03-02T11:00:34;4.78;;;1.52;;
29358;SDS011;16347;53.232;6.556;2024-03-02T11:03:05;3.90;;;1.30;;
29358;SDS011;16347;53.232;6.556;2024-03-02T11:05:36;2.33;;;1.50;;
29358;SDS011;16347;53.232;6.556;2024-03-02T11:08:08;2.75;;;1.20;;
29358;SDS011;16347;53.232;6.556;2024-03-02T11:10:41;3.05;;;1.58;;
29358;SDS011;16347;53.232;6.556;2024-03-02T11:13:14;1.20;;;0.80;;
29358;SDS011;16347;53.232;6.556;2024-03-02T11:15:43;3.38;;;1.38;;
29358;SDS011;16347;53.232;6.556;2024-03-02T11:18:12;4.32;;;1.23;;
29358;SDS011;16347;53.232;6.556;2024-03-02T11:20:42;4.22;;;1.15;;
29358;SDS011;16347;53.232;6.556;2024-03-02T11:23:12;5.00;;;1.40;;
29358;SDS011;16347;53.232;6.556;2024-03-02T11:25:40;2.72;;;1.20;;
29358;SDS011;16347;53.232;6.556;2024-03-02T11:28:08;2.83;;;1.40;;
29358;SDS011;16347;53.232;6.556;2024-03-02T11:30:50;2.70;;;1.13;;
29358;SDS011;16347;53.232;6.556;2024-03-02T11:33:24;7.15;;;1.77;;
29358;SDS011;16347;53.232;6.556;2024-03-02T11:35:56;1.98;;;1.20;;
29358;SDS011;16347;53.232;6.556;2024-03-02T11:38:29;5.55;;;1.30;;
29358;SDS011;16347;53.232;6.556;2024-03-02T11:40:59;3.35;;;1.30;;
29358;SDS011;16347;53.232;6.556;2024-03-02T11:43:28;1.33;;;1.00;;
29358;SDS011;16347;53.232;6.556;2024-03-02T11:45:57;4.68;;;1.27;;
29358;SDS011;16347;53.232;6.556;2024-03-02T11:48:25;5.30;;;1.40;;
29358;SDS011;16347;53.232;6.556;2024-03-02T11:50:54;3.35;;;1.30;;
29358;SDS011;16347;53.232;6.556;2024-03-02T11:53:26;5.10;;;1.10;;
29358;SDS011;16347;53.232;6.556;2024-03-02T11:55:59;2.65;;;0.90;;
29358;SDS011;16347;53.232;6.556;2024-03-02T11:58:28;5.68;;;1.52;;
29358;SDS011;16347;53.232;6.556;2024-03-02T12:00:56;2.55;;;1.20;;
29358;SDS011;16347;53.232;6.556;2024-03-02T12:03:25;1.92;;;0.90;;
29358;SDS011;16347;53.232;6.556;2024-03-02T12:05:54;2.65;;;0.95;;
29358;SDS011;16347;53.232;6.556;2024-03-02T17:01:11;8.07;;;3.55;;
29358;SDS011;16347;53.232;6.556;2024-03-02T17:03:40;11.45;;;3.17;;
29358;SDS011;16347;53.232;6.556;2024-03-02T17:06:08;6.30;;;3.33;;
29358;SDS011;16347;53.232;6.556;2024-03-02T17:08:36;9.48;;;3.33;;
29358;SDS011;16347;53.232;6.556;2024-03-02T17:11:03;5.75;;;3.70;;
29358;SDS011;16347;53.232;6.556;2024-03-02T17:13:31;4.18;;;2.55;;
29358;SDS011;16347;53.232;6.556;2024-03-02T17:15:59;4.78;;;3.30;;
29358;SDS011;16347;53.232;6.556;2024-03-02T17:18:28;8.20;;;3.75;;
29358;SDS011;16347;53.232;6.556;2024-03-02T17:20:57;6.63;;;3.25;;
29358;SDS011;16347;53.232;6.556;2024-03-02T17:23:25;11.75;;;3.53;;
29358;SDS011;16347;53.232;6.556;2024-03-02T17:25:57;6.68;;;3.83;;
29358;SDS011;16347;53.232;6.556;2024-03-02T17:28:25;9.05;;;3.78;;
29358;SDS011;16347;53.232;6.556;2024-03-02T17:30:57;5.68;;;3.00;;
29358;SDS011;16347;53.232;6.556;2024-03-02T17:33:25;5.18;;;3.10;;
29358;SDS011;16347;53.232;6.556;2024-03-02T17:35:53;8.65;;;3.47;;
29358;SDS011;16347;53.232;6.556;2024-03-02T17:38:22;7.15;;;3.28;;
29358;SDS011;16347;53.232;6.556;2024-03-02T17:40:50;6.68;;;3.75;;
29358;SDS011;16347;53.232;6.556;2024-03-02T17:43:18;6.82;;;3.53;;
29358;SDS011;16347;53.232;6.556;2024-03-02T17:45:46;6.25;;;3.60;;
29358;SDS011;16347;53.232;6.556;2024-03-02T17:48:14;9.40;;;3.35;;
29358;SDS011;16347;53.232;6.556;2024-03-02T17:50:43;7.60;;;3.67;;
29358;SDS011;16347;53.232;6.556;2024-03-02T17:53:11;5.38;;;3.38;;
29358;SDS011;16347;53.232;6.556;2024-03-02T17:55:40;7.22;;;3.60;;
29358;SDS011;16347;53.232;6.556;2024-03-02T17:58:08;7.38;;;3.50;;
29358;SDS011;16347;53.232;6.556;2024-03-02T18:00:36;12.93;;;3.88;;
29358;SDS011;16347;53.232;6.556;2024-03-02T18:03:04;7.00;;;3.58;;
29358;SDS011;16347;53.232;6.556;2024-03-02T18:05:33;7.68;;;3.33;;
29358;SDS011;16347;53.232;6.556;2024-03-02T18:08:02;6.15;;;3.17;;
29358;SDS011;16347;53.232;6.556;2024-03-02T18:10:30;8.52;;;3.15;;
29358;SDS011;16347;53.232;6.556;2024-03-02T18:12:59;6.70;;;3.53;;
29358;SDS011;16347;53.232;6.556;2024-03-02T18:15:27;7.28;;;3.88;;
29358;SDS011;16347;53.232;6.556;2024-03-02T18:17:55;6.50;;;3.58;;
29358;SDS011;16347;53.232;6.556;2024-03-02T18:20:23;5.57;;;3.42;;
29358;SDS011;16347;53.232;6.556;2024-03-02T18:22:51;6.15;;;3.83;;
29358;SDS011;16347;53.232;6.556;2024-03-02T18:25:22;8.82;;;3.35;;
29358;SDS011;16347;53.232;6.556;2024-03-02T18:27:50;7.35;;;3.40;;
29358;SDS011;16347;53.232;6.556;2024-03-02T18:30:20;6.00;;;3.72;;
29358;SDS011;16347;53.232;6.556;2024-03-02T18:32:48;8.73;;;4.47;;
29358;SDS011;16347;53.232;6.556;2024-03-02T18:35:15;8.50;;;3.70;;
29358;SDS011;16347;53.232;6.556;2024-03-02T18:37:44;6.00;;;3.65;;
29358;SDS011;16347;53.232;6.556;2024-03-02T18:40:12;6.75;;;3.92;;
29358;SDS011;16347;53.232;6.556;2024-03-02T18:42:41;6.25;;;3.95;;
29358;SDS011;16347;53.232;6.556;2024-03-02T18:45:09;8.35;;;4.60;;
29358;SDS011;16347;53.232;6.556;2024-03-02T18:47:38;4.90;;;3.42;;
29358;SDS011;16347;53.232;6.556;2024-03-02T18:50:06;6.97;;;4.13;;
29358;SDS011;16347;53.232;6.556;2024-03-02T18:52:35;6.90;;;3.90;;
29358;SDS011;16347;53.232;6.556;2024-03-02T18:55:04;7.50;;;3.80;;
29358;SDS011;16347;53.232;6.556;2024-03-02T18:57:34;7.70;;;4.00;;
29358;SDS011;16347;53.232;6.556;2024-03-02T19:00:02;6.30;;;4.00;;
29358;SDS011;16347;53.232;6.556;2024-03-02T19:02:32;10.50;;;4.50;;
29358;SDS011;16347;53.232;6.556;2024-03-02T19:05:01;7.10;;;4.65;;
29358;SDS011;16347;53.232;6.556;2024-03-02T19:07:31;6.93;;;4.10;;
29358;SDS011;16347;53.232;6.556;2024-03-02T19:09:59;6.60;;;4.28;;
29358;SDS011;16347;53.232;6.556;2024-03-02T19:12:31;6.47;;;3.78;;
29358;SDS011;16347;53.232;6.556;2024-03-02T19:14:59;5.95;;;4.00;;
29358;SDS011;16347;53.232;6.556;2024-03-02T19:17:28;12.27;;;4.78;;
29358;SDS011;16347;53.232;6.556;2024-03-02T19:19:55;8.20;;;5.05;;
29358;SDS011;16347;53.232;6.556;2024-03-02T19:22:25;7.13;;;4.40;;
29358;SDS011;16347;53.232;6.556;2024-03-02T19:24:54;9.48;;;4.82;;
29358;SDS011;16347;53.232;6.556;2024-03-02T19:27:23;8.55;;;4.57;;
29358;SDS011;16347;53.232;6.556;2024-03-02T19:29:51;9.60;;;4.78;;
29358;SDS011;16347;53.232;6.556;2024-03-02T19:32:19;7.18;;;4.35;;
29358;SDS011;16347;53.232;6.556;2024-03-02T19:34:48;6.53;;;4.60;;
29358;SDS011;16347;53.232;6.556;2024-03-02T19:37:16;10.30;;;4.90;;
29358;SDS011;16347;53.232;6.556;2024-03-02T19:39:45;9.20;;;4.38;;
29358;SDS011;16347;53.232;6.556;2024-03-02T19:42:13;7.38;;;4.43;;
29358;SDS011;16347;53.232;6.556;2024-03-02T19:44:41;9.63;;;4.40;;
29358;SDS011;16347;53.232;6.556;2024-03-02T19:47:09;8.48;;;4.72;;
29358;SDS011;16347;53.232;6.556;2024-03-02T19:49:40;9.30;;;5.40;;
29358;SDS011;16347;53.232;6.556;2024-03-02T19:52:08;9.73;;;4.95;;
29358;SDS011;16347;53.232;6.556;2024-03-02T19:54:36;8.52;;;4.90;;
29358;SDS011;16347;53.232;6.556;2024-03-02T19:57:06;8.48;;;4.80;;
29358;SDS011;16347;53.232;6.556;2024-03-02T19:59:34;8.73;;;5.03;;
29358;SDS011;16347;53.232;6.556;2024-03-02T20:02:02;10.40;;;4.85;;
29358;SDS011;16347;53.232;6.556;2024-03-02T20:04:36;9.23;;;4.50;;
29358;SDS011;16347;53.232;6.556;2024-03-02T20:07:05;10.98;;;4.75;;
29358;SDS011;16347;53.232;6.556;2024-03-02T20:09:34;12.25;;;5.30;;
29358;SDS011;16347;53.232;6.556;2024-03-02T20:12:02;11.82;;;4.85;;
29358;SDS011;16347;53.232;6.556;2024-03-02T20:14:32;10.52;;;5.93;;
29358;SDS011;16347;53.232;6.556;2024-03-02T20:17:00;12.65;;;6.03;;